sensor_id;sensor_type;location;lat;lon;timestamp;temperature;humidity
38239;DHT22;24035;48.900;9.188;2023-02-18T00:00:11;12.40;68.10
38239;DHT22;24035;48.900;9.188;2023-02-18T00:02:37;12.40;84.40
38239;DHT22;24035;48.900;9.188;2023-02-18T00:05:03;12.40;74.70
38239;DHT22;24035;48.900;9.188;2023-02-18T00:07:36;12.40;99.90
38239;DHT22;24035;48.900;9.188;2023-02-18T00:10:05;12.40;99.60
38239;DHT22;24035;48.900;9.188;2023-02-18T00:12:31;12.40;99.90
38239;DHT22;24035;48.900;9.188;2023-02-18T00:14:57;12.40;99.90
38239;DHT22;24035;48.900;9.188;2023-02-18T00:17:23;12.30;99.90
38239;DHT22;24035;48.900;9.188;2023-02-18T00:19:49;12.30;99.90
38239;DHT22;24035;48.900;9.188;2023-02-18T00:22:15;12.30;99.90
38239;DHT22;24035;48.900;9.188;2023-02-18T00:24:40;12.30;99.90
38239;DHT22;24035;48.900;9.188;2023-02-18T00:27:06;12.30;99.90
38239;DHT22;24035;48.900;9.188;2023-02-18T00:29:33;12.30;99.90
38239;DHT22;24035;48.900;9.188;2023-02-18T00:31:59;12.30;95.10
38239;DHT22;24035;48.900;9.188;2023-02-18T00:34:25;12.30;99.90
38239;DHT22;24035;48.900;9.188;2023-02-18T00:36:50;12.30;99.90
38239;DHT22;24035;48.900;9.188;2023-02-18T00:39:16;12.20;99.90
38239;DHT22;24035;48.900;9.188;2023-02-18T00:41:42;12.20;99.90
38239;DHT22;24035;48.900;9.188;2023-02-18T00:44:09;12.20;99.90
38239;DHT22;24035;48.900;9.188;2023-02-18T00:46:35;12.10;99.90
38239;DHT22;24035;48.900;9.188;2023-02-18T00:49:02;12.20;99.90
38239;DHT22;24035;48.900;9.188;2023-02-18T00:51:28;12.20;99.90
38239;DHT22;24035;48.900;9.188;2023-02-18T00:53:54;12.30;99.90
38239;DHT22;24035;48.900;9.188;2023-02-18T00:56:20;12.30;99.90
38239;DHT22;24035;48.900;9.188;2023-02-18T00:58:46;12.20;99.90
38239;DHT22;24035;48.900;9.188;2023-02-18T01:01:11;12.30;99.90
38239;DHT22;24035;48.900;9.188;2023-02-18T01:03:39;12.30;99.90
38239;DHT22;24035;48.900;9.188;2023-02-18T01:06:06;12.30;99.90
38239;DHT22;24035;48.900;9.188;2023-02-18T01:08:32;12.30;99.90
38239;DHT22;24035;48.900;9.188;2023-02-18T01:10:58;12.30;93.00
38239;DHT22;24035;48.900;9.188;2023-02-18T01:13:24;12.30;64.70
38239;DHT22;24035;48.900;9.188;2023-02-18T01:15:51;12.30;80.40
38239;DHT22;24035;48.900;9.188;2023-02-18T01:18:17;12.30;98.10
38239;DHT22;24035;48.900;9.188;2023-02-18T01:20:44;12.20;96.60
38239;DHT22;24035;48.900;9.188;2023-02-18T01:23:10;12.30;41.20
38239;DHT22;24035;48.900;9.188;2023-02-18T01:25:37;12.30;1.00
38239;DHT22;24035;48.900;9.188;2023-02-18T01:28:04;12.40;1.00
38239;DHT22;24035;48.900;9.188;2023-02-18T01:30:30;12.40;1.00
38239;DHT22;24035;48.900;9.188;2023-02-18T01:32:56;12.40;1.00
38239;DHT22;24035;48.900;9.188;2023-02-18T01:35:22;12.30;1.00
38239;DHT22;24035;48.900;9.188;2023-02-18T01:37:49;12.30;1.00
38239;DHT22;24035;48.900;9.188;2023-02-18T01:40:18;12.30;1.00
38239;DHT22;24035;48.900;9.188;2023-02-18T01:42:45;12.20;1.00
38239;DHT22;24035;48.900;9.188;2023-02-18T01:48:20;12.20;3.20
38239;DHT22;24035;48.900;9.188;2023-02-18T01:50:55;12.10;15.70
38239;DHT22;24035;48.900;9.188;2023-02-18T01:53:26;12.10;48.20
38239;DHT22;24035;48.900;9.188;2023-02-18T01:55:53;12.00;58.20
38239;DHT22;24035;48.900;9.188;2023-02-18T01:58:19;12.00;81.00
38239;DHT22;24035;48.900;9.188;2023-02-18T02:00:45;12.00;66.20
38239;DHT22;24035;48.900;9.188;2023-02-18T02:03:11;12.00;83.60
38239;DHT22;24035;48.900;9.188;2023-02-18T02:05:36;12.00;92.00
38239;DHT22;24035;48.900;9.188;2023-02-18T02:08:03;12.00;92.90
38239;DHT22;24035;48.900;9.188;2023-02-18T02:13:28;12.00;99.90
38239;DHT22;24035;48.900;9.188;2023-02-18T02:16:11;12.00;98.30
38239;DHT22;24035;48.900;9.188;2023-02-18T02:19:08;12.00;99.90
38239;DHT22;24035;48.900;9.188;2023-02-18T02:27:22;12.00;99.70
38239;DHT22;24035;48.900;9.188;2023-02-18T02:38:37;12.20;1.00
38239;DHT22;24035;48.900;9.188;2023-02-18T02:46:44;12.20;1.00
38239;DHT22;24035;48.900;9.188;2023-02-18T02:52:11;12.20;1.00
38239;DHT22;24035;48.900;9.188;2023-02-18T02:54:37;12.20;1.00
38239;DHT22;24035;48.900;9.188;2023-02-18T02:59:41;12.20;1.00
38239;DHT22;24035;48.900;9.188;2023-02-18T03:08:25;12.30;1.00
38239;DHT22;24035;48.900;9.188;2023-02-18T03:13:27;12.40;1.00
38239;DHT22;24035;48.900;9.188;2023-02-18T03:18:38;12.40;1.00
38239;DHT22;24035;48.900;9.188;2023-02-18T03:21:15;12.40;1.00
38239;DHT22;24035;48.900;9.188;2023-02-18T03:23:57;12.40;1.00
38239;DHT22;24035;48.900;9.188;2023-02-18T03:26:24;12.40;1.00
38239;DHT22;24035;48.900;9.188;2023-02-18T03:28:54;12.40;1.00
38239;DHT22;24035;48.900;9.188;2023-02-18T03:31:24;12.40;1.00
38239;DHT22;24035;48.900;9.188;2023-02-18T03:33:56;12.40;1.00
38239;DHT22;24035;48.900;9.188;2023-02-18T03:36:23;12.30;1.00
38239;DHT22;24035;48.900;9.188;2023-02-18T03:39:13;12.30;1.00
38239;DHT22;24035;48.900;9.188;2023-02-18T03:41:39;12.20;1.00
38239;DHT22;24035;48.900;9.188;2023-02-18T03:44:07;12.10;1.00
38239;DHT22;24035;48.900;9.188;2023-02-18T03:46:34;12.10;1.00
38239;DHT22;24035;48.900;9.188;2023-02-18T03:49:01;12.10;1.00
38239;DHT22;24035;48.900;9.188;2023-02-18T03:51:26;12.00;1.00
38239;DHT22;24035;48.900;9.188;2023-02-18T03:53:52;11.90;1.00
38239;DHT22;24035;48.900;9.188;2023-02-18T03:56:18;11.90;1.00
38239;DHT22;24035;48.900;9.188;2023-02-18T03:58:44;11.90;1.00
38239;DHT22;24035;48.900;9.188;2023-02-18T04:01:10;11.80;1.00
38239;DHT22;24035;48.900;9.188;2023-02-18T04:03:35;11.70;8.30
38239;DHT22;24035;48.900;9.188;2023-02-18T04:06:01;11.70;50.20
38239;DHT22;24035;48.900;9.188;2023-02-18T04:08:27;11.60;99.90
38239;DHT22;24035;48.900;9.188;2023-02-18T04:10:52;11.60;99.90
38239;DHT22;24035;48.900;9.188;2023-02-18T04:13:18;11.60;99.90
38239;DHT22;24035;48.900;9.188;2023-02-18T04:15:44;11.60;99.90
38239;DHT22;24035;48.900;9.188;2023-02-18T04:18:10;11.60;99.90
38239;DHT22;24035;48.900;9.188;2023-02-18T04:20:36;11.50;99.90
38239;DHT22;24035;48.900;9.188;2023-02-18T04:23:03;11.50;99.90
38239;DHT22;24035;48.900;9.188;2023-02-18T04:25:29;11.50;99.90
38239;DHT22;24035;48.900;9.188;2023-02-18T04:27:54;11.40;99.90
38239;DHT22;24035;48.900;9.188;2023-02-18T04:30:20;11.40;99.90
38239;DHT22;24035;48.900;9.188;2023-02-18T04:32:46;11.30;99.90
38239;DHT22;24035;48.900;9.188;2023-02-18T04:35:11;11.40;99.90
38239;DHT22;24035;48.900;9.188;2023-02-18T04:37:37;11.40;99.90
38239;DHT22;24035;48.900;9.188;2023-02-18T04:40:03;11.50;99.90
38239;DHT22;24035;48.900;9.188;2023-02-18T04:42:28;11.60;99.90
38239;DHT22;24035;48.900;9.188;2023-02-18T04:44:54;11.70;99.90
38239;DHT22;24035;48.900;9.188;2023-02-18T04:47:20;11.70;84.40
38239;DHT22;24035;48.900;9.188;2023-02-18T04:49:45;11.80;19.50
38239;DHT22;24035;48.900;9.188;2023-02-18T04:52:11;11.90;1.00
38239;DHT22;24035;48.900;9.188;2023-02-18T04:54:37;11.80;1.00
38239;DHT22;24035;48.900;9.188;2023-02-18T04:57:03;11.80;1.00
38239;DHT22;24035;48.900;9.188;2023-02-18T04:59:28;11.70;1.00
38239;DHT22;24035;48.900;9.188;2023-02-18T05:01:54;11.70;1.00
38239;DHT22;24035;48.900;9.188;2023-02-18T05:04:19;11.60;19.90
38239;DHT22;24035;48.900;9.188;2023-02-18T05:06:45;11.50;60.60
38239;DHT22;24035;48.900;9.188;2023-02-18T05:09:11;11.60;56.40
38239;DHT22;24035;48.900;9.188;2023-02-18T05:11:36;11.40;98.90
38239;DHT22;24035;48.900;9.188;2023-02-18T05:14:02;11.40;99.90
38239;DHT22;24035;48.900;9.188;2023-02-18T05:16:28;11.30;99.90
38239;DHT22;24035;48.900;9.188;2023-02-18T05:18:53;11.30;99.90
38239;DHT22;24035;48.900;9.188;2023-02-18T05:21:19;11.20;99.90
38239;DHT22;24035;48.900;9.188;2023-02-18T05:23:45;11.20;99.90
38239;DHT22;24035;48.900;9.188;2023-02-18T05:26:10;11.20;99.90
38239;DHT22;24035;48.900;9.188;2023-02-18T05:28:36;11.10;99.90
38239;DHT22;24035;48.900;9.188;2023-02-18T05:31:02;10.90;99.90
38239;DHT22;24035;48.900;9.188;2023-02-18T05:33:27;10.80;99.90
38239;DHT22;24035;48.900;9.188;2023-02-18T05:35:53;10.70;99.90
38239;DHT22;24035;48.900;9.188;2023-02-18T05:38:19;10.70;99.90
38239;DHT22;24035;48.900;9.188;2023-02-18T05:40:45;10.60;1.00
38239;DHT22;24035;48.900;9.188;2023-02-18T05:43:10;10.50;1.00
38239;DHT22;24035;48.900;9.188;2023-02-18T05:45:36;10.40;1.00
38239;DHT22;24035;48.900;9.188;2023-02-18T05:48:02;10.30;1.00
38239;DHT22;24035;48.900;9.188;2023-02-18T05:50:27;10.20;1.00
38239;DHT22;24035;48.900;9.188;2023-02-18T05:52:53;10.30;1.00
38239;DHT22;24035;48.900;9.188;2023-02-18T05:55:19;10.20;1.00
38239;DHT22;24035;48.900;9.188;2023-02-18T05:57:44;10.20;1.00
38239;DHT22;24035;48.900;9.188;2023-02-18T06:00:11;10.10;1.00
38239;DHT22;24035;48.900;9.188;2023-02-18T06:02:37;10.10;1.00
38239;DHT22;24035;48.900;9.188;2023-02-18T06:05:04;10.00;1.00
38239;DHT22;24035;48.900;9.188;2023-02-18T06:07:30;10.10;1.00
38239;DHT22;24035;48.900;9.188;2023-02-18T06:09:55;10.10;1.00
38239;DHT22;24035;48.900;9.188;2023-02-18T06:12:21;10.20;1.00
38239;DHT22;24035;48.900;9.188;2023-02-18T06:14:47;10.20;1.00
38239;DHT22;24035;48.900;9.188;2023-02-18T06:17:14;10.20;1.00
38239;DHT22;24035;48.900;9.188;2023-02-18T06:19:40;10.30;1.00
38239;DHT22;24035;48.900;9.188;2023-02-18T06:22:06;10.20;1.00
38239;DHT22;24035;48.900;9.188;2023-02-18T06:24:32;10.20;1.00
38239;DHT22;24035;48.900;9.188;2023-02-18T06:26:58;10.30;1.00
38239;DHT22;24035;48.900;9.188;2023-02-18T06:29:24;10.30;1.00
38239;DHT22;24035;48.900;9.188;2023-02-18T06:31:50;10.30;1.00
38239;DHT22;24035;48.900;9.188;2023-02-18T06:34:16;10.30;1.00
38239;DHT22;24035;48.900;9.188;2023-02-18T06:36:42;10.40;1.00
38239;DHT22;24035;48.900;9.188;2023-02-18T06:39:07;10.40;1.00
38239;DHT22;24035;48.900;9.188;2023-02-18T06:41:33;10.50;1.00
38239;DHT22;24035;48.900;9.188;2023-02-18T06:43:59;10.60;1.00
38239;DHT22;24035;48.900;9.188;2023-02-18T06:46:25;10.70;1.00
38239;DHT22;24035;48.900;9.188;2023-02-18T06:48:50;10.80;1.00
38239;DHT22;24035;48.900;9.188;2023-02-18T06:51:16;10.90;1.00
38239;DHT22;24035;48.900;9.188;2023-02-18T06:53:44;10.90;1.00
38239;DHT22;24035;48.900;9.188;2023-02-18T06:56:10;10.90;1.00
38239;DHT22;24035;48.900;9.188;2023-02-18T06:58:36;11.10;1.00
38239;DHT22;24035;48.900;9.188;2023-02-18T07:01:02;11.10;99.90
38239;DHT22;24035;48.900;9.188;2023-02-18T07:03:28;11.10;99.90
38239;DHT22;24035;48.900;9.188;2023-02-18T07:05:53;11.10;99.90
38239;DHT22;24035;48.900;9.188;2023-02-18T07:08:19;11.20;99.90
38239;DHT22;24035;48.900;9.188;2023-02-18T07:10:45;11.30;99.90
38239;DHT22;24035;48.900;9.188;2023-02-18T07:13:11;11.30;99.90
38239;DHT22;24035;48.900;9.188;2023-02-18T07:15:37;11.40;99.90
38239;DHT22;24035;48.900;9.188;2023-02-18T07:18:03;11.40;99.90
38239;DHT22;24035;48.900;9.188;2023-02-18T07:20:28;11.40;99.90
38239;DHT22;24035;48.900;9.188;2023-02-18T07:22:54;11.50;99.90
38239;DHT22;24035;48.900;9.188;2023-02-18T07:25:20;11.50;99.90
38239;DHT22;24035;48.900;9.188;2023-02-18T07:27:46;11.60;99.90
38239;DHT22;24035;48.900;9.188;2023-02-18T07:30:12;11.60;99.90
38239;DHT22;24035;48.900;9.188;2023-02-18T07:32:38;11.70;99.90
38239;DHT22;24035;48.900;9.188;2023-02-18T07:35:04;11.70;99.90
38239;DHT22;24035;48.900;9.188;2023-02-18T07:37:30;11.80;99.90
38239;DHT22;24035;48.900;9.188;2023-02-18T07:39:56;11.80;91.60
38239;DHT22;24035;48.900;9.188;2023-02-18T07:42:22;11.80;83.90
38239;DHT22;24035;48.900;9.188;2023-02-18T07:44:48;11.90;26.70
38239;DHT22;24035;48.900;9.188;2023-02-18T07:47:15;11.90;1.00
38239;DHT22;24035;48.900;9.188;2023-02-18T07:49:43;12.00;1.00
38239;DHT22;24035;48.900;9.188;2023-02-18T07:52:08;12.10;1.00
38239;DHT22;24035;48.900;9.188;2023-02-18T07:54:34;12.20;1.00
38239;DHT22;24035;48.900;9.188;2023-02-18T07:57:00;12.20;1.00
38239;DHT22;24035;48.900;9.188;2023-02-18T07:59:26;12.30;1.00
38239;DHT22;24035;48.900;9.188;2023-02-18T08:01:51;12.40;1.00
38239;DHT22;24035;48.900;9.188;2023-02-18T08:04:17;12.40;1.00
38239;DHT22;24035;48.900;9.188;2023-02-18T08:06:45;12.40;1.00
38239;DHT22;24035;48.900;9.188;2023-02-18T08:09:11;12.50;1.00
38239;DHT22;24035;48.900;9.188;2023-02-18T08:11:37;12.40;1.00
38239;DHT22;24035;48.900;9.188;2023-02-18T08:14:04;12.50;1.00
38239;DHT22;24035;48.900;9.188;2023-02-18T08:16:30;12.50;1.00
38239;DHT22;24035;48.900;9.188;2023-02-18T08:18:56;12.50;1.00
38239;DHT22;24035;48.900;9.188;2023-02-18T08:21:23;12.50;1.00
38239;DHT22;24035;48.900;9.188;2023-02-18T08:23:50;12.60;1.00
38239;DHT22;24035;48.900;9.188;2023-02-18T08:26:17;12.70;1.00
38239;DHT22;24035;48.900;9.188;2023-02-18T08:28:44;12.70;1.00
38239;DHT22;24035;48.900;9.188;2023-02-18T08:31:36;12.80;1.00
38239;DHT22;24035;48.900;9.188;2023-02-18T08:34:02;13.00;1.00
38239;DHT22;24035;48.900;9.188;2023-02-18T08:36:29;13.20;1.00
38239;DHT22;24035;48.900;9.188;2023-02-18T08:38:56;13.20;1.00
38239;DHT22;24035;48.900;9.188;2023-02-18T08:41:21;13.30;1.00
38239;DHT22;24035;48.900;9.188;2023-02-18T08:43:48;13.40;1.00
38239;DHT22;24035;48.900;9.188;2023-02-18T08:46:14;13.40;1.00
38239;DHT22;24035;48.900;9.188;2023-02-18T08:48:39;13.40;1.00
38239;DHT22;24035;48.900;9.188;2023-02-18T08:51:17;13.50;1.00
38239;DHT22;24035;48.900;9.188;2023-02-18T08:53:43;13.50;1.00
38239;DHT22;24035;48.900;9.188;2023-02-18T08:56:11;13.60;1.00
38239;DHT22;24035;48.900;9.188;2023-02-18T08:58:37;13.60;1.00
38239;DHT22;24035;48.900;9.188;2023-02-18T09:01:05;13.60;1.00
38239;DHT22;24035;48.900;9.188;2023-02-18T09:03:32;13.70;1.00
38239;DHT22;24035;48.900;9.188;2023-02-18T09:05:58;13.90;1.00
38239;DHT22;24035;48.900;9.188;2023-02-18T09:08:24;13.80;1.00
38239;DHT22;24035;48.900;9.188;2023-02-18T09:10:57;13.90;1.00
38239;DHT22;24035;48.900;9.188;2023-02-18T09:13:24;14.10;1.00
38239;DHT22;24035;48.900;9.188;2023-02-18T09:16:01;14.00;1.00
38239;DHT22;24035;48.900;9.188;2023-02-18T09:18:28;14.00;1.00
38239;DHT22;24035;48.900;9.188;2023-02-18T09:20:55;13.90;1.00
38239;DHT22;24035;48.900;9.188;2023-02-18T09:23:22;14.00;1.00
38239;DHT22;24035;48.900;9.188;2023-02-18T09:25:48;14.10;1.00
38239;DHT22;24035;48.900;9.188;2023-02-18T09:28:13;14.20;1.00
38239;DHT22;24035;48.900;9.188;2023-02-18T09:30:39;14.20;1.00
38239;DHT22;24035;48.900;9.188;2023-02-18T09:33:05;14.20;1.00
38239;DHT22;24035;48.900;9.188;2023-02-18T09:35:30;14.10;1.00
38239;DHT22;24035;48.900;9.188;2023-02-18T09:37:56;14.20;1.00
38239;DHT22;24035;48.900;9.188;2023-02-18T09:40:29;14.40;1.00
38239;DHT22;24035;48.900;9.188;2023-02-18T09:42:57;14.50;1.00
38239;DHT22;24035;48.900;9.188;2023-02-18T09:45:24;14.70;1.00
38239;DHT22;24035;48.900;9.188;2023-02-18T09:47:50;14.80;1.00
38239;DHT22;24035;48.900;9.188;2023-02-18T09:50:27;14.80;1.00
38239;DHT22;24035;48.900;9.188;2023-02-18T09:52:55;14.90;1.00
38239;DHT22;24035;48.900;9.188;2023-02-18T09:55:31;14.80;1.00
38239;DHT22;24035;48.900;9.188;2023-02-18T09:58:01;14.70;1.00
38239;DHT22;24035;48.900;9.188;2023-02-18T10:00:29;14.70;1.00
38239;DHT22;24035;48.900;9.188;2023-02-18T10:03:17;14.70;1.00
38239;DHT22;24035;48.900;9.188;2023-02-18T10:08:37;14.70;1.00
38239;DHT22;24035;48.900;9.188;2023-02-18T10:11:14;14.80;1.00
38239;DHT22;24035;48.900;9.188;2023-02-18T10:13:41;15.00;1.00
38239;DHT22;24035;48.900;9.188;2023-02-18T10:16:08;15.00;1.00
38239;DHT22;24035;48.900;9.188;2023-02-18T10:18:43;14.80;1.00
38239;DHT22;24035;48.900;9.188;2023-02-18T10:21:26;14.70;1.00
38239;DHT22;24035;48.900;9.188;2023-02-18T10:23:58;14.80;1.00
38239;DHT22;24035;48.900;9.188;2023-02-18T10:26:24;14.80;1.00
38239;DHT22;24035;48.900;9.188;2023-02-18T10:28:50;14.70;1.00
38239;DHT22;24035;48.900;9.188;2023-02-18T10:31:37;14.60;1.00
38239;DHT22;24035;48.900;9.188;2023-02-18T10:34:13;14.70;1.00
38239;DHT22;24035;48.900;9.188;2023-02-18T10:36:46;14.70;1.00
38239;DHT22;24035;48.900;9.188;2023-02-18T10:50:49;14.90;1.00
38239;DHT22;24035;48.900;9.188;2023-02-18T10:53:34;15.00;1.00
38239;DHT22;24035;48.900;9.188;2023-02-18T10:56:00;15.10;1.00
38239;DHT22;24035;48.900;9.188;2023-02-18T10:58:41;15.30;1.00
38239;DHT22;24035;48.900;9.188;2023-02-18T11:01:14;15.60;1.00
38239;DHT22;24035;48.900;9.188;2023-02-18T11:03:44;15.60;1.00
38239;DHT22;24035;48.900;9.188;2023-02-18T11:08:58;15.40;1.00
38239;DHT22;24035;48.900;9.188;2023-02-18T11:11:33;15.50;1.00
38239;DHT22;24035;48.900;9.188;2023-02-18T11:14:02;15.50;1.00
38239;DHT22;24035;48.900;9.188;2023-02-18T11:16:41;15.50;1.00
38239;DHT22;24035;48.900;9.188;2023-02-18T11:19:33;15.40;1.00
38239;DHT22;24035;48.900;9.188;2023-02-18T11:22:29;15.40;1.00
38239;DHT22;24035;48.900;9.188;2023-02-18T11:25:00;15.40;1.00
38239;DHT22;24035;48.900;9.188;2023-02-18T11:29:59;15.30;1.00
38239;DHT22;24035;48.900;9.188;2023-02-18T11:32:28;15.20;1.00
38239;DHT22;24035;48.900;9.188;2023-02-18T11:34:55;15.10;1.00
38239;DHT22;24035;48.900;9.188;2023-02-18T11:37:21;15.20;1.00
38239;DHT22;24035;48.900;9.188;2023-02-18T11:39:49;15.00;1.00
38239;DHT22;24035;48.900;9.188;2023-02-18T11:42:18;14.80;1.00
38239;DHT22;24035;48.900;9.188;2023-02-18T11:44:51;14.90;1.00
38239;DHT22;24035;48.900;9.188;2023-02-18T11:52:35;14.80;1.00
38239;DHT22;24035;48.900;9.188;2023-02-18T11:55:06;14.80;1.00
38239;DHT22;24035;48.900;9.188;2023-02-18T11:57:36;14.80;1.00
38239;DHT22;24035;48.900;9.188;2023-02-18T12:02:54;14.90;1.00
38239;DHT22;24035;48.900;9.188;2023-02-18T12:05:26;14.80;1.00
38239;DHT22;24035;48.900;9.188;2023-02-18T12:08:24;14.80;1.00
38239;DHT22;24035;48.900;9.188;2023-02-18T12:10:56;14.60;1.00
38239;DHT22;24035;48.900;9.188;2023-02-18T12:13:33;14.60;1.00
38239;DHT22;24035;48.900;9.188;2023-02-18T12:16:10;14.70;1.00
38239;DHT22;24035;48.900;9.188;2023-02-18T12:22:00;14.80;1.00
38239;DHT22;24035;48.900;9.188;2023-02-18T12:27:27;15.00;1.00
38239;DHT22;24035;48.900;9.188;2023-02-18T12:32:48;14.90;1.00
38239;DHT22;24035;48.900;9.188;2023-02-18T12:40:50;14.50;1.00
38239;DHT22;24035;48.900;9.188;2023-02-18T12:43:48;14.50;1.00
38239;DHT22;24035;48.900;9.188;2023-02-18T12:46:26;14.50;1.00
38239;DHT22;24035;48.900;9.188;2023-02-18T12:52:10;14.60;1.00
38239;DHT22;24035;48.900;9.188;2023-02-18T12:54:58;14.60;1.00
38239;DHT22;24035;48.900;9.188;2023-02-18T13:00:15;14.50;1.00
38239;DHT22;24035;48.900;9.188;2023-02-18T13:08:30;14.60;1.00
38239;DHT22;24035;48.900;9.188;2023-02-18T13:11:15;14.60;1.00
38239;DHT22;24035;48.900;9.188;2023-02-18T13:14:15;14.60;1.00
38239;DHT22;24035;48.900;9.188;2023-02-18T13:16:47;14.60;1.00
38239;DHT22;24035;48.900;9.188;2023-02-18T13:19:43;14.60;1.00
38239;DHT22;24035;48.900;9.188;2023-02-18T13:22:11;14.60;1.00
38239;DHT22;24035;48.900;9.188;2023-02-18T13:24:45;14.60;1.00
38239;DHT22;24035;48.900;9.188;2023-02-18T13:27:32;14.60;1.00
38239;DHT22;24035;48.900;9.188;2023-02-18T13:30:24;14.60;1.00
38239;DHT22;24035;48.900;9.188;2023-02-18T13:33:18;14.60;1.00
38239;DHT22;24035;48.900;9.188;2023-02-18T13:38:55;14.70;1.00
38239;DHT22;24035;48.900;9.188;2023-02-18T13:41:25;14.60;1.00
38239;DHT22;24035;48.900;9.188;2023-02-18T13:43:51;14.70;1.00
38239;DHT22;24035;48.900;9.188;2023-02-18T13:46:22;14.70;1.00
38239;DHT22;24035;48.900;9.188;2023-02-18T13:54:30;14.50;1.00
38239;DHT22;24035;48.900;9.188;2023-02-18T13:57:12;14.50;1.00
38239;DHT22;24035;48.900;9.188;2023-02-18T13:59:50;14.60;1.00
38239;DHT22;24035;48.900;9.188;2023-02-18T14:09:59;14.50;1.00
38239;DHT22;24035;48.900;9.188;2023-02-18T14:12:39;14.50;1.00
38239;DHT22;24035;48.900;9.188;2023-02-18T14:25:54;14.60;1.00
38239;DHT22;24035;48.900;9.188;2023-02-18T14:31:22;14.70;1.00
38239;DHT22;24035;48.900;9.188;2023-02-18T14:40:42;14.70;1.00
38239;DHT22;24035;48.900;9.188;2023-02-18T14:42:51;14.60;1.00
38239;DHT22;24035;48.900;9.188;2023-02-18T14:45:30;14.50;1.00
38239;DHT22;24035;48.900;9.188;2023-02-18T14:48:41;14.40;1.00
38239;DHT22;24035;48.900;9.188;2023-02-18T14:51:07;14.30;1.00
38239;DHT22;24035;48.900;9.188;2023-02-18T14:53:41;14.30;1.00
38239;DHT22;24035;48.900;9.188;2023-02-18T14:56:10;14.20;1.00
38239;DHT22;24035;48.900;9.188;2023-02-18T14:58:40;14.10;1.00
38239;DHT22;24035;48.900;9.188;2023-02-18T15:01:22;14.10;1.00
38239;DHT22;24035;48.900;9.188;2023-02-18T15:03:49;14.00;1.00
38239;DHT22;24035;48.900;9.188;2023-02-18T15:06:32;13.90;1.00
38239;DHT22;24035;48.900;9.188;2023-02-18T15:08:59;13.90;1.00
38239;DHT22;24035;48.900;9.188;2023-02-18T15:11:37;14.00;1.00
38239;DHT22;24035;48.900;9.188;2023-02-18T15:14:17;13.90;1.00
38239;DHT22;24035;48.900;9.188;2023-02-18T15:16:43;13.90;1.00
38239;DHT22;24035;48.900;9.188;2023-02-18T15:19:15;13.90;1.00
38239;DHT22;24035;48.900;9.188;2023-02-18T15:21:45;13.80;1.00
38239;DHT22;24035;48.900;9.188;2023-02-18T15:26:45;13.70;1.00
38239;DHT22;24035;48.900;9.188;2023-02-18T15:29:28;13.70;1.00
38239;DHT22;24035;48.900;9.188;2023-02-18T15:31:55;13.60;1.00
38239;DHT22;24035;48.900;9.188;2023-02-18T15:36:54;13.50;1.00
38239;DHT22;24035;48.900;9.188;2023-02-18T15:39:20;13.50;1.00
38239;DHT22;24035;48.900;9.188;2023-02-18T15:41:46;13.50;1.00
38239;DHT22;24035;48.900;9.188;2023-02-18T15:44:19;13.40;1.00
38239;DHT22;24035;48.900;9.188;2023-02-18T15:46:47;13.40;1.00
38239;DHT22;24035;48.900;9.188;2023-02-18T15:49:14;13.40;1.00
38239;DHT22;24035;48.900;9.188;2023-02-18T15:51:44;13.40;1.00
38239;DHT22;24035;48.900;9.188;2023-02-18T15:54:17;13.50;1.00
38239;DHT22;24035;48.900;9.188;2023-02-18T15:56:48;13.40;1.00
38239;DHT22;24035;48.900;9.188;2023-02-18T15:59:26;13.30;1.00
38239;DHT22;24035;48.900;9.188;2023-02-18T16:01:55;13.30;1.00
38239;DHT22;24035;48.900;9.188;2023-02-18T16:04:23;13.20;1.00
38239;DHT22;24035;48.900;9.188;2023-02-18T16:06:53;13.20;1.00
38239;DHT22;24035;48.900;9.188;2023-02-18T16:09:30;13.20;1.00
38239;DHT22;24035;48.900;9.188;2023-02-18T16:11:58;13.20;1.00
38239;DHT22;24035;48.900;9.188;2023-02-18T16:14:38;13.20;1.00
38239;DHT22;24035;48.900;9.188;2023-02-18T16:19:56;13.20;1.00
38239;DHT22;24035;48.900;9.188;2023-02-18T16:25:39;13.20;1.00
38239;DHT22;24035;48.900;9.188;2023-02-18T16:28:12;13.10;1.00
38239;DHT22;24035;48.900;9.188;2023-02-18T16:30:38;13.10;1.00
38239;DHT22;24035;48.900;9.188;2023-02-18T16:33:08;13.10;1.00
38239;DHT22;24035;48.900;9.188;2023-02-18T16:35:34;13.10;1.00
38239;DHT22;24035;48.900;9.188;2023-02-18T16:38:00;13.00;1.00
38239;DHT22;24035;48.900;9.188;2023-02-18T16:40:35;13.10;1.00
38239;DHT22;24035;48.900;9.188;2023-02-18T16:43:12;13.10;1.00
38239;DHT22;24035;48.900;9.188;2023-02-18T16:45:42;13.00;1.00
38239;DHT22;24035;48.900;9.188;2023-02-18T16:48:16;13.00;1.00
38239;DHT22;24035;48.900;9.188;2023-02-18T16:50:44;13.00;1.00
38239;DHT22;24035;48.900;9.188;2023-02-18T16:53:13;13.00;1.00
38239;DHT22;24035;48.900;9.188;2023-02-18T16:55:39;12.90;1.00
38239;DHT22;24035;48.900;9.188;2023-02-18T16:58:05;12.90;1.00
38239;DHT22;24035;48.900;9.188;2023-02-18T17:00:31;12.80;1.00
38239;DHT22;24035;48.900;9.188;2023-02-18T17:02:58;12.80;1.00
38239;DHT22;24035;48.900;9.188;2023-02-18T17:05:29;12.80;1.00
38239;DHT22;24035;48.900;9.188;2023-02-18T17:08:15;12.80;1.00
38239;DHT22;24035;48.900;9.188;2023-02-18T17:10:44;12.70;1.00
38239;DHT22;24035;48.900;9.188;2023-02-18T17:13:24;12.70;1.00
38239;DHT22;24035;48.900;9.188;2023-02-18T17:15:52;12.60;1.00
38239;DHT22;24035;48.900;9.188;2023-02-18T17:18:19;12.50;1.00
38239;DHT22;24035;48.900;9.188;2023-02-18T17:20:45;12.40;1.00
38239;DHT22;24035;48.900;9.188;2023-02-18T17:23:17;12.40;1.00
38239;DHT22;24035;48.900;9.188;2023-02-18T17:25:46;12.30;1.00
38239;DHT22;24035;48.900;9.188;2023-02-18T17:28:13;12.30;1.00
38239;DHT22;24035;48.900;9.188;2023-02-18T17:30:45;12.20;1.00
38239;DHT22;24035;48.900;9.188;2023-02-18T17:33:14;12.20;1.00
38239;DHT22;24035;48.900;9.188;2023-02-18T17:35:41;12.10;1.00
38239;DHT22;24035;48.900;9.188;2023-02-18T17:38:15;12.10;1.00
38239;DHT22;24035;48.900;9.188;2023-02-18T17:40:41;12.10;1.00
38239;DHT22;24035;48.900;9.188;2023-02-18T17:43:12;12.10;1.00
38239;DHT22;24035;48.900;9.188;2023-02-18T17:45:47;12.10;1.00
38239;DHT22;24035;48.900;9.188;2023-02-18T17:48:13;12.10;1.00
38239;DHT22;24035;48.900;9.188;2023-02-18T17:50:38;12.00;1.00
38239;DHT22;24035;48.900;9.188;2023-02-18T17:53:04;12.00;1.00
38239;DHT22;24035;48.900;9.188;2023-02-18T17:55:31;12.10;1.00
38239;DHT22;24035;48.900;9.188;2023-02-18T17:57:58;12.00;1.00
38239;DHT22;24035;48.900;9.188;2023-02-18T18:00:27;12.00;1.00
38239;DHT22;24035;48.900;9.188;2023-02-18T18:02:53;12.00;1.00
38239;DHT22;24035;48.900;9.188;2023-02-18T18:05:25;11.90;1.00
38239;DHT22;24035;48.900;9.188;2023-02-18T18:07:51;11.90;1.00
38239;DHT22;24035;48.900;9.188;2023-02-18T18:10:18;11.90;32.20
38239;DHT22;24035;48.900;9.188;2023-02-18T18:12:46;11.80;78.30
38239;DHT22;24035;48.900;9.188;2023-02-18T18:17:47;11.80;8.30
38239;DHT22;24035;48.900;9.188;2023-02-18T18:20:13;11.80;1.00
38239;DHT22;24035;48.900;9.188;2023-02-18T18:22:39;11.80;1.00